createdAt,value
2017-02-11T00:00:27.896Z,5.32
2017-02-11T00:01:27.814Z,5.29
2017-02-11T00:02:27.829Z,5.29
2017-02-11T00:03:27.827Z,5.35
2017-02-11T00:04:27.839Z,5.33
2017-02-11T00:05:27.856Z,5.3
2017-02-11T00:06:27.880Z,5.33
2017-02-11T00:07:27.879Z,5.35
2017-02-11T00:08:27.887Z,5.26
2017-02-11T00:09:27.899Z,5.3
2017-02-11T00:10:28.012Z,5.3
2017-02-11T00:11:27.925Z,5.33
2017-02-11T00:12:27.532Z,5.32
2017-02-11T00:13:27.947Z,5.3
2017-02-11T00:14:27.952Z,5.32
2017-02-11T00:15:27.973Z,5.41
2017-02-11T00:16:27.978Z,5.41
2017-02-11T00:17:27.972Z,5.41
2017-02-11T00:18:27.993Z,5.33
2017-02-11T00:19:28.010Z,5.32
2017-02-11T00:20:28.076Z,5.32
2017-02-11T00:21:28.035Z,5.33
2017-02-11T00:22:28.045Z,5.3
2017-02-11T00:23:28.064Z,5.36
2017-02-11T00:24:28.074Z,5.33
2017-02-11T00:25:28.078Z,5.3
2017-02-11T00:26:28.086Z,5.33
2017-02-11T00:27:28.101Z,5.29
2017-02-11T00:28:28.113Z,5.33
2017-02-11T00:29:28.115Z,5.29
2017-02-11T00:30:28.138Z,5.33
2017-02-11T00:31:28.144Z,5.32
2017-02-11T00:32:28.156Z,5.33
2017-02-11T00:33:28.161Z,5.3
2017-02-11T00:34:28.176Z,5.33
2017-02-11T00:35:28.191Z,5.33
2017-02-11T00:36:28.204Z,5.32
2017-02-11T00:37:28.210Z,5.36
2017-02-11T00:38:27.822Z,5.29
2017-02-11T00:39:28.236Z,5.33
2017-02-11T00:40:28.235Z,5.33
2017-02-11T00:41:28.259Z,5.26
2017-02-11T00:42:28.267Z,5.33
2017-02-11T00:43:28.274Z,5.32
2017-02-11T00:44:28.286Z,5.33
2017-02-11T00:45:28.299Z,5.38
2017-02-11T00:46:28.307Z,5.35
2017-02-11T00:47:28.322Z,5.33
2017-02-11T00:48:28.341Z,5.36
2017-02-11T00:49:28.346Z,5.3
2017-02-11T00:50:28.355Z,5.33
2017-02-11T00:51:28.361Z,5.35
2017-02-11T00:52:28.376Z,5.36
2017-02-11T00:53:28.389Z,5.36
2017-02-11T00:54:28.397Z,5.33
2017-02-11T00:55:28.010Z,5.32
2017-02-11T00:56:28.423Z,5.33
2017-02-11T00:57:28.422Z,5.33
2017-02-11T00:58:28.447Z,5.33
2017-02-11T00:59:28.450Z,5.33
2017-02-11T01:00:28.463Z,5.36
2017-02-11T01:01:28.596Z,5.39
2017-02-11T01:02:28.487Z,5.36
2017-02-11T01:03:28.486Z,5.32
2017-02-11T01:04:28.504Z,5.36
2017-02-11T01:05:28.511Z,5.3
2017-02-11T01:06:28.583Z,5.33
2017-02-11T01:07:28.540Z,5.39
2017-02-11T01:08:28.552Z,5.33
2017-02-11T01:09:28.164Z,5.36
2017-02-11T01:10:28.572Z,5.35
2017-02-11T01:11:28.575Z,5.33
2017-02-11T01:12:28.594Z,5.35
2017-02-11T01:13:28.603Z,5.33
2017-02-11T01:14:28.620Z,5.35
2017-02-11T01:15:28.636Z,5.32
2017-02-11T01:16:28.785Z,5.33
2017-02-11T01:17:28.757Z,5.32
2017-02-11T01:18:28.663Z,5.36
2017-02-11T01:19:28.665Z,5.35
2017-02-11T01:20:28.680Z,5.28
2017-02-11T01:21:28.815Z,5.32
2017-02-11T01:22:28.815Z,5.29
2017-02-11T01:23:28.712Z,5.29
2017-02-11T01:24:28.723Z,5.29
2017-02-11T01:25:28.737Z,5.25
2017-02-11T01:26:28.750Z,5.26
2017-02-11T01:27:28.759Z,5.2
2017-02-11T01:28:28.762Z,5.21
2017-02-11T01:29:28.780Z,5.23
2017-02-11T01:30:28.783Z,5.2
2017-02-11T01:31:28.805Z,5.26
2017-02-11T01:32:28.815Z,5.23
2017-02-11T01:33:28.819Z,5.25
2017-02-11T01:34:28.837Z,5.18
2017-02-11T01:35:28.846Z,5.29
2017-02-11T01:36:28.856Z,5.23
2017-02-11T01:37:28.868Z,5.21
2017-02-11T01:38:28.869Z,5.35
2017-02-11T01:39:28.890Z,5.23
2017-02-11T01:40:28.880Z,5.23
2017-02-11T01:41:28.890Z,5.2
2017-02-11T01:42:28.900Z,5.21
2017-02-11T01:43:28.914Z,5.23
2017-02-11T01:44:28.913Z,5.21
2017-02-11T01:45:28.935Z,5.23
2017-02-11T01:46:28.944Z,5.2
2017-02-11T01:47:28.963Z,5.18
2017-02-11T01:48:28.968Z,5.2
2017-02-11T01:49:28.975Z,5.2
2017-02-11T01:50:28.989Z,5.25
2017-02-11T01:51:29.002Z,5.28
2017-02-11T01:52:29.011Z,5.29
2017-02-11T01:53:28.619Z,5.18
2017-02-11T01:54:29.041Z,5.18
2017-02-11T01:55:29.040Z,5.25
2017-02-11T01:56:29.054Z,5.17
2017-02-11T01:57:29.052Z,5.18
2017-02-11T01:58:29.079Z,5.18
2017-02-11T01:59:29.089Z,5.17
2017-02-11T02:00:29.099Z,5.25
2017-02-11T02:01:29.129Z,5.23
2017-02-11T02:02:29.121Z,5.2
2017-02-11T02:03:29.135Z,5.26
2017-02-11T02:04:29.148Z,5.2
2017-02-11T02:05:29.165Z,5.21
2017-02-11T02:06:29.156Z,5.18
2017-02-11T02:07:29.179Z,5.25
2017-02-11T02:08:29.180Z,5.25
2017-02-11T02:09:29.202Z,5.23
2017-02-11T02:10:29.203Z,5.28
2017-02-11T02:11:29.220Z,5.26
2017-02-11T02:12:29.234Z,5.18
2017-02-11T02:13:29.233Z,5.23
2017-02-11T02:14:29.253Z,5.2
2017-02-11T02:15:29.266Z,5.14
2017-02-11T02:16:29.264Z,5.18
2017-02-11T02:17:29.289Z,5.25
2017-02-11T02:18:29.289Z,5.28
2017-02-11T02:19:29.310Z,5.21
2017-02-11T02:20:28.922Z,5.23
2017-02-11T02:21:29.331Z,5.23
2017-02-11T02:22:29.340Z,5.25
2017-02-11T02:23:29.355Z,5.25
2017-02-11T02:24:29.368Z,5.26
2017-02-11T02:25:29.371Z,5.25
2017-02-11T02:26:29.388Z,5.21
2017-02-11T02:27:29.405Z,5.26
2017-02-11T02:28:29.406Z,5.15
2017-02-11T02:29:29.421Z,5.17
2017-02-11T02:30:29.420Z,5.23
2017-02-11T02:31:29.435Z,5.18
2017-02-11T02:32:29.442Z,5.21
2017-02-11T02:33:29.455Z,5.2
2017-02-11T02:34:29.475Z,5.25
2017-02-11T02:35:29.485Z,5.23
2017-02-11T02:36:29.500Z,5.25
2017-02-11T02:37:29.507Z,5.15
2017-02-11T02:38:29.520Z,5.2
2017-02-11T02:39:29.531Z,5.2
2017-02-11T02:40:29.141Z,5.14
2017-02-11T02:41:29.549Z,5.18
2017-02-11T02:42:29.563Z,5.11
2017-02-11T02:43:29.572Z,5.21
2017-02-11T02:44:29.583Z,5.21
2017-02-11T02:45:29.586Z,5.23
2017-02-11T02:46:29.612Z,5.21
2017-02-11T02:47:29.610Z,5.2
2017-02-11T02:48:29.622Z,5.21
2017-02-11T02:49:29.671Z,5.21
2017-02-11T02:50:29.633Z,5.21
2017-02-11T02:51:29.661Z,5.18
2017-02-11T02:52:29.674Z,5.17
2017-02-11T02:53:29.681Z,5.12
2017-02-11T02:54:29.696Z,5.2
2017-02-11T02:55:29.699Z,5.15
2017-02-11T02:56:29.319Z,5.21
2017-02-11T02:57:29.719Z,5.15
2017-02-11T02:58:29.727Z,5.1
2017-02-11T02:59:29.750Z,5.15
2017-02-11T03:00:29.741Z,5.05
2017-02-11T03:01:29.772Z,5.08
2017-02-11T03:02:29.781Z,5.11
2017-02-11T03:03:29.794Z,5.08
2017-02-11T03:04:29.804Z,5.08
2017-02-11T03:05:29.810Z,5.11
2017-02-11T03:06:29.830Z,5.12
2017-02-11T03:07:29.836Z,5.1
2017-02-11T03:08:29.954Z,5.11
2017-02-11T03:09:29.850Z,5.1
2017-02-11T03:10:29.971Z,5.12
2017-02-11T03:11:29.963Z,5.11
2017-02-11T03:12:29.910Z,5.1
2017-02-11T03:13:30.025Z,5.1
2017-02-11T03:14:30.026Z,5.04
2017-02-11T03:15:30.060Z,5.05
2017-02-11T03:16:29.930Z,5.07
2017-02-11T03:17:29.944Z,5.05
2017-02-11T03:18:29.724Z,5
2017-02-11T03:19:29.783Z,5.08
2017-02-11T03:20:29.970Z,5.07
2017-02-11T03:21:29.969Z,5.08
2017-02-11T03:22:30.000Z,5.07
2017-02-11T03:23:30.006Z,5
2017-02-11T03:24:30.016Z,5.02
2017-02-11T03:25:30.027Z,4.97
2017-02-11T03:26:30.073Z,5.07
2017-02-11T03:27:30.051Z,5.05
2017-02-11T03:28:30.062Z,4.94
2017-02-11T03:29:30.072Z,5
2017-02-11T03:30:30.084Z,5
2017-02-11T03:31:30.083Z,4.99
2017-02-11T03:32:30.111Z,5.04
2017-02-11T03:33:30.109Z,5.02
2017-02-11T03:34:30.117Z,5
2017-02-11T03:35:30.168Z,5
2017-02-11T03:36:30.153Z,4.92
2017-02-11T03:37:30.162Z,4.92
2017-02-11T03:38:30.169Z,5
2017-02-11T03:39:30.178Z,5.02
2017-02-11T03:40:30.192Z,4.96
2017-02-11T03:41:30.199Z,4.97
2017-02-11T03:42:30.216Z,4.99
2017-02-11T03:43:30.229Z,4.99
2017-02-11T03:44:30.237Z,4.89
2017-02-11T03:45:30.251Z,4.99
2017-02-11T03:46:30.247Z,4.94
2017-02-11T03:47:30.254Z,5
2017-02-11T03:48:30.269Z,5.04
2017-02-11T03:49:30.287Z,4.92
2017-02-11T03:50:30.321Z,4.99
2017-02-11T03:51:30.302Z,4.99
2017-02-11T03:52:30.323Z,5.04
2017-02-11T03:53:30.335Z,5
2017-02-11T03:54:30.345Z,4.92
2017-02-11T03:55:30.509Z,4.96
2017-02-11T03:56:29.963Z,5.05
2017-02-11T03:57:30.377Z,4.99
2017-02-11T03:58:30.387Z,4.99
2017-02-11T03:59:30.387Z,5
2017-02-11T04:00:30.406Z,4.99
2017-02-11T04:01:30.416Z,4.92
2017-02-11T04:02:30.031Z,5.05
2017-02-11T04:03:30.443Z,4.93
2017-02-11T04:04:30.443Z,4.97
2017-02-11T04:05:30.480Z,4.92
2017-02-11T04:06:30.477Z,4.99
2017-02-11T04:07:30.501Z,4.99
2017-02-11T04:08:30.493Z,4.97
2017-02-11T04:09:30.503Z,5
2017-02-11T04:10:30.515Z,4.99
2017-02-11T04:11:30.525Z,5.02
2017-02-11T04:12:30.536Z,5.02
2017-02-11T04:13:30.546Z,5.04
2017-02-11T04:14:30.559Z,5.02
2017-02-11T04:15:30.569Z,5.07
2017-02-11T04:16:30.182Z,4.99
2017-02-11T04:17:30.184Z,4.99
2017-02-11T04:18:30.589Z,4.94
2017-02-11T04:19:30.615Z,5.07
2017-02-11T04:20:30.907Z,5.04
2017-02-11T04:21:30.866Z,4.93
2017-02-11T04:22:30.768Z,4.99
2017-02-11T04:23:30.791Z,4.92
2017-02-11T04:24:30.731Z,4.97
2017-02-11T04:25:30.759Z,4.92
2017-02-11T04:26:30.676Z,4.99
2017-02-11T04:27:30.776Z,4.94
2017-02-11T04:28:30.741Z,5.04
2017-02-11T04:29:30.752Z,4.99
2017-02-11T04:30:30.720Z,5.04
2017-02-11T04:31:30.737Z,5.02
2017-02-11T04:32:30.768Z,5
2017-02-11T04:33:30.760Z,4.99
2017-02-11T04:34:30.770Z,4.97
2017-02-11T04:35:30.787Z,4.92
2017-02-11T04:36:30.782Z,5
2017-02-11T04:37:30.426Z,4.99
2017-02-11T04:38:30.813Z,4.99
2017-02-11T04:39:30.821Z,4.97
2017-02-11T04:40:30.834Z,4.89
2017-02-11T04:41:30.847Z,4.99
2017-02-11T04:42:30.863Z,5.04
2017-02-11T04:43:30.871Z,5.04
2017-02-11T04:44:30.878Z,5.02
2017-02-11T04:45:30.888Z,5.04
2017-02-11T04:46:30.500Z,5.07
2017-02-11T04:47:30.917Z,4.89
2017-02-11T04:48:30.935Z,4.96
2017-02-11T04:49:30.931Z,4.93
2017-02-11T04:50:30.943Z,4.96
2017-02-11T04:51:30.559Z,5.04
2017-02-11T04:52:30.966Z,5.04
2017-02-11T04:53:30.976Z,5.02
2017-02-11T04:54:31.022Z,4.97
2017-02-11T04:55:30.994Z,5.05
2017-02-11T04:56:31.007Z,4.92
2017-02-11T04:57:31.020Z,4.89
2017-02-11T04:58:31.016Z,4.99
2017-02-11T04:59:31.045Z,4.99
2017-02-11T05:00:31.054Z,5
2017-02-11T05:01:30.663Z,4.99
2017-02-11T05:02:31.075Z,5
2017-02-11T05:03:31.086Z,4.97
2017-02-11T05:04:31.090Z,4.94
2017-02-11T05:05:31.105Z,5.04
2017-02-11T05:06:31.118Z,4.97
2017-02-11T05:07:31.125Z,4.99
2017-02-11T05:08:31.137Z,5.05
2017-02-11T05:09:31.151Z,4.99
2017-02-11T05:10:31.155Z,5.04
2017-02-11T05:11:31.180Z,5
2017-02-11T05:12:31.183Z,4.94
2017-02-11T05:13:31.185Z,5.02
2017-02-11T05:14:31.190Z,5.05
2017-02-11T05:15:30.809Z,4.94
2017-02-11T05:16:31.226Z,4.97
2017-02-11T05:17:31.233Z,5
2017-02-11T05:18:31.232Z,5
2017-02-11T05:19:31.255Z,4.94
2017-02-11T05:20:30.868Z,5
2017-02-11T05:21:31.277Z,5.02
2017-02-11T05:22:31.277Z,5.02
2017-02-11T05:23:31.298Z,5.02
2017-02-11T05:24:31.337Z,5
2017-02-11T05:25:31.340Z,5.05
2017-02-11T05:26:31.317Z,4.96
2017-02-11T05:27:31.341Z,4.99
2017-02-11T05:28:31.343Z,5.02
2017-02-11T05:29:31.358Z,4.99
2017-02-11T05:30:31.376Z,5.05
2017-02-11T05:31:31.384Z,4.94
2017-02-11T05:32:30.994Z,5
2017-02-11T05:33:31.401Z,5.02
2017-02-11T05:34:31.416Z,5
2017-02-11T05:35:31.415Z,5
2017-02-11T05:36:31.431Z,5.02
2017-02-11T05:37:31.444Z,5
2017-02-11T05:38:31.454Z,5.05
2017-02-11T05:39:31.467Z,5.02
2017-02-11T05:40:31.478Z,5.02
2017-02-11T05:41:31.094Z,5
2017-02-11T05:42:31.495Z,5.02
2017-02-11T05:43:31.512Z,5.07
2017-02-11T05:44:31.508Z,5.11
2017-02-11T05:45:31.530Z,5.04
2017-02-11T05:46:31.545Z,5.1
2017-02-11T05:47:31.555Z,5.1
2017-02-11T05:48:31.564Z,5.02
2017-02-11T05:49:31.575Z,5.04
2017-02-11T05:50:31.584Z,5
2017-02-11T05:51:31.602Z,5.02
2017-02-11T05:52:31.597Z,5
2017-02-11T05:53:31.610Z,5.07
2017-02-11T05:54:31.629Z,5.1
2017-02-11T05:55:31.636Z,5
2017-02-11T05:56:31.677Z,4.99
2017-02-11T05:57:31.663Z,5.05
2017-02-11T05:58:31.669Z,5.08
2017-02-11T05:59:31.678Z,4.99
2017-02-11T06:00:31.695Z,4.99
2017-02-11T06:01:31.696Z,5.07
2017-02-11T06:02:31.711Z,5
2017-02-11T06:03:31.725Z,4.99
2017-02-11T06:04:31.736Z,5
2017-02-11T06:05:31.748Z,4.94
2017-02-11T06:06:31.755Z,4.99
2017-02-11T06:07:31.766Z,5.04
2017-02-11T06:08:31.777Z,5.08
2017-02-11T06:09:31.792Z,5.07
2017-02-11T06:10:31.798Z,5.02
2017-02-11T06:11:31.810Z,4.97
2017-02-11T06:12:31.821Z,5.02
2017-02-11T06:13:31.833Z,5.05
2017-02-11T06:14:31.847Z,5.05
2017-02-11T06:15:31.854Z,5
2017-02-11T06:16:31.872Z,5.08
2017-02-11T06:17:31.910Z,5
2017-02-11T06:18:31.874Z,4.97
2017-02-11T06:19:31.895Z,5
2017-02-11T06:20:31.909Z,4.97
2017-02-11T06:21:31.918Z,5.05
2017-02-11T06:22:31.930Z,5.04
2017-02-11T06:23:31.938Z,4.99
2017-02-11T06:24:31.945Z,5.02
2017-02-11T06:25:31.963Z,4.94
2017-02-11T06:26:31.973Z,4.97
2017-02-11T06:27:31.987Z,4.97
2017-02-11T06:28:31.996Z,4.97
2017-02-11T06:29:32.003Z,4.99
2017-02-11T06:30:32.015Z,5.05
2017-02-11T06:31:32.018Z,5.02
2017-02-11T06:32:32.040Z,5.02
2017-02-11T06:33:32.049Z,5.02
2017-02-11T06:34:32.054Z,5
2017-02-11T06:35:32.064Z,5
2017-02-11T06:36:32.084Z,4.99
2017-02-11T06:37:32.088Z,5
2017-02-11T06:38:32.101Z,4.94
2017-02-11T06:39:32.135Z,4.97
2017-02-11T06:40:32.112Z,5.04
2017-02-11T06:41:32.130Z,4.99
2017-02-11T06:42:32.137Z,4.96
2017-02-11T06:43:32.156Z,4.99
2017-02-11T06:44:32.164Z,4.99
2017-02-11T06:45:32.176Z,5
2017-02-11T06:46:32.176Z,4.97
2017-02-11T06:47:32.235Z,5.02
2017-02-11T06:48:32.203Z,5
2017-02-11T06:49:32.222Z,5.04
2017-02-11T06:50:32.227Z,5
2017-02-11T06:51:32.228Z,4.97
2017-02-11T06:52:32.239Z,4.94
2017-02-11T06:53:32.258Z,5.04
2017-02-11T06:54:31.972Z,4.97
2017-02-11T06:55:31.966Z,4.93
2017-02-11T06:56:31.972Z,4.96
2017-02-11T06:57:32.362Z,5.04
2017-02-11T06:58:31.968Z,4.94
2017-02-11T06:59:32.386Z,4.96
2017-02-11T07:00:32.392Z,4.94
2017-02-11T07:01:32.374Z,5.05
2017-02-11T07:02:32.419Z,5.02
2017-02-11T07:03:32.419Z,5.04
2017-02-11T07:04:32.441Z,4.94
2017-02-11T07:05:32.444Z,5
2017-02-11T07:06:32.428Z,5.08
2017-02-11T07:07:32.048Z,4.99
2017-02-11T07:08:32.507Z,5.08
2017-02-11T07:09:32.516Z,5.08
2017-02-11T07:10:32.091Z,5.05
2017-02-11T07:11:32.126Z,5.07
2017-02-11T07:12:32.120Z,5.02
2017-02-11T07:13:32.576Z,5.02
2017-02-11T07:14:32.545Z,5.1
2017-02-11T07:15:32.577Z,5.07
2017-02-11T07:16:32.569Z,5.07
2017-02-11T07:17:32.587Z,5.04
2017-02-11T07:18:32.575Z,5
2017-02-11T07:19:32.630Z,5.04
2017-02-11T07:20:32.633Z,5.07
2017-02-11T07:21:32.593Z,5.04
2017-02-11T07:22:32.655Z,5.1
2017-02-11T07:23:32.626Z,5.07
2017-02-11T07:24:32.616Z,5.08
2017-02-11T07:25:32.806Z,5.11
2017-02-11T07:26:32.845Z,4.99
2017-02-11T07:27:32.314Z,5.1
2017-02-11T07:28:32.828Z,5.07
2017-02-11T07:29:32.318Z,5.11
2017-02-11T07:30:32.716Z,5.04
2017-02-11T07:31:32.720Z,5.11
2017-02-11T07:32:32.731Z,5.1
2017-02-11T07:33:32.739Z,5.14
2017-02-11T07:34:32.368Z,5.04
2017-02-11T07:35:32.386Z,5.12
2017-02-11T07:36:32.367Z,5.11
2017-02-11T07:37:32.795Z,5.1
2017-02-11T07:38:32.808Z,5.12
2017-02-11T07:39:32.428Z,5.14
2017-02-11T07:40:32.443Z,5.07
2017-02-11T07:41:32.784Z,5.08
2017-02-11T07:42:32.830Z,5.07
2017-02-11T07:43:32.826Z,5.15
2017-02-11T07:44:32.866Z,5.17
2017-02-11T07:45:32.823Z,5.11
2017-02-11T07:46:32.495Z,5.04
2017-02-11T07:47:32.925Z,5.08
2017-02-11T07:48:32.491Z,5.14
2017-02-11T07:49:32.909Z,5.05
2017-02-11T07:50:33.068Z,5.14
2017-02-11T07:51:33.014Z,5.14
2017-02-11T07:52:32.951Z,5.12
2017-02-11T07:53:32.131Z,5.12
2017-02-11T07:54:32.566Z,5.11
2017-02-11T07:55:32.995Z,5.11
2017-02-11T07:56:32.980Z,5.14
2017-02-11T07:57:32.602Z,5.07
2017-02-11T07:58:33.026Z,5.08
2017-02-11T07:59:33.015Z,5.1
2017-02-11T08:00:32.594Z,5.12
2017-02-11T08:01:33.072Z,5.11
2017-02-11T08:02:33.092Z,5.08
2017-02-11T08:03:32.679Z,5.11
2017-02-11T08:04:33.059Z,5.11
2017-02-11T08:05:33.126Z,5.07
2017-02-11T08:06:32.717Z,5.14
2017-02-11T08:07:33.123Z,5.1
2017-02-11T08:08:32.734Z,5.15
2017-02-11T08:09:33.155Z,5.18
2017-02-11T08:10:33.145Z,5.11
2017-02-11T08:11:32.988Z,5.12
2017-02-11T08:12:33.319Z,5.17
2017-02-11T08:13:33.313Z,5.12
2017-02-11T08:14:33.310Z,5.17
2017-02-11T08:15:33.134Z,5.14
2017-02-11T08:16:33.247Z,5.1
2017-02-11T08:17:33.196Z,5.17
2017-02-11T08:18:33.195Z,5.17
2017-02-11T08:19:33.205Z,5.1
2017-02-11T08:20:33.352Z,5.12
2017-02-11T08:21:33.310Z,5.14
2017-02-11T08:22:33.207Z,5.14
2017-02-11T08:23:33.217Z,5.17
2017-02-11T08:24:33.222Z,5.15
2017-02-11T08:25:33.247Z,5.15
2017-02-11T08:26:33.252Z,5.17
2017-02-11T08:27:33.343Z,5.18
2017-02-11T08:28:33.272Z,5.18
2017-02-11T08:29:33.286Z,5.2
2017-02-11T08:30:33.294Z,5.2
2017-02-11T08:31:33.388Z,5.21
2017-02-11T08:32:33.315Z,5.21
2017-02-11T08:33:33.472Z,5.18
2017-02-11T08:34:33.440Z,5.2
2017-02-11T08:35:33.436Z,5.2
2017-02-11T08:36:33.445Z,5.2
2017-02-11T08:37:33.571Z,5.17
2017-02-11T08:38:33.508Z,5.18
2017-02-11T08:39:33.462Z,5.17
2017-02-11T08:40:33.470Z,5.15
2017-02-11T08:41:33.477Z,5.26
2017-02-11T08:42:33.503Z,5.15
2017-02-11T08:43:33.027Z,5.17
2017-02-11T08:44:33.443Z,5.23
2017-02-11T08:45:33.496Z,5.2
2017-02-11T08:46:33.468Z,5.23
2017-02-11T08:47:33.475Z,5.23
2017-02-11T08:48:33.576Z,5.23
2017-02-11T08:49:33.195Z,5.26
2017-02-11T08:50:33.514Z,5.23
2017-02-11T08:51:33.511Z,5.29
2017-02-11T08:52:33.533Z,5.29
2017-02-11T08:53:33.529Z,5.29
2017-02-11T08:54:33.551Z,5.33
2017-02-11T08:55:33.678Z,5.23
2017-02-11T08:56:33.677Z,5.36
2017-02-11T08:57:33.800Z,5.3
2017-02-11T08:58:33.808Z,5.36
2017-02-11T08:59:33.811Z,5.33
2017-02-11T09:00:33.812Z,5.33
2017-02-11T09:01:33.811Z,5.35
2017-02-11T09:02:33.837Z,5.28
2017-02-11T09:03:33.737Z,5.29
2017-02-11T09:04:33.743Z,5.36
2017-02-11T09:05:33.754Z,5.44
2017-02-11T09:06:33.907Z,5.33
2017-02-11T09:07:33.768Z,5.32
2017-02-11T09:08:33.516Z,5.38
2017-02-11T09:09:33.912Z,5.46
2017-02-11T09:10:33.925Z,5.36
2017-02-11T09:11:33.940Z,5.48
2017-02-11T09:12:33.927Z,5.41
2017-02-11T09:13:33.947Z,5.43
2017-02-11T09:14:33.954Z,5.35
2017-02-11T09:15:33.863Z,5.39
2017-02-11T09:16:33.916Z,5.47
2017-02-11T09:17:33.868Z,5.41
2017-02-11T09:18:33.878Z,5.41
2017-02-11T09:19:33.886Z,5.38
2017-02-11T09:20:33.894Z,5.43
2017-02-11T09:21:33.972Z,5.44
2017-02-11T09:22:33.965Z,5.38
2017-02-11T09:23:33.957Z,5.39
2017-02-11T09:24:33.959Z,5.35
2017-02-11T09:25:33.973Z,5.48
2017-02-11T09:26:33.979Z,5.44
2017-02-11T09:27:33.985Z,5.43
2017-02-11T09:28:33.924Z,5.38
2017-02-11T09:29:33.924Z,5.44
2017-02-11T09:30:33.931Z,5.43
2017-02-11T09:31:34.161Z,5.38
2017-02-11T09:32:33.964Z,5.41
2017-02-11T09:33:33.977Z,5.43
2017-02-11T09:34:33.987Z,5.41
2017-02-11T09:35:33.999Z,5.36
2017-02-11T09:36:34.009Z,5.44
2017-02-11T09:37:34.023Z,5.48
2017-02-11T09:38:34.061Z,5.35
2017-02-11T09:39:34.043Z,5.43
2017-02-11T09:40:34.053Z,5.39
2017-02-11T09:41:34.057Z,5.44
2017-02-11T09:42:34.080Z,5.41
2017-02-11T09:43:34.303Z,5.47
2017-02-11T09:44:34.307Z,5.53
2017-02-11T09:45:34.322Z,5.51
2017-02-11T09:46:34.317Z,5.46
2017-02-11T09:47:34.333Z,5.53
2017-02-11T09:48:34.335Z,5.47
2017-02-11T09:49:34.345Z,5.44
2017-02-11T09:50:34.165Z,5.51
2017-02-11T09:51:34.185Z,5.5
2017-02-11T09:52:34.179Z,5.56
2017-02-11T09:53:34.189Z,5.48
2017-02-11T09:54:34.205Z,5.61
2017-02-11T09:55:34.221Z,5.48
2017-02-11T09:56:34.226Z,5.5
2017-02-11T09:57:34.242Z,5.59
2017-02-11T09:58:34.246Z,5.54
2017-02-11T09:59:59.071Z,5.56
2017-02-11T10:00:34.273Z,5.61
2017-02-11T10:01:34.287Z,5.57
2017-02-11T10:02:34.366Z,5.61
2017-02-11T10:03:34.312Z,5.57
2017-02-11T10:04:34.325Z,5.56
2017-02-11T10:05:34.438Z,5.64
2017-02-11T10:06:34.345Z,5.57
2017-02-11T10:07:34.352Z,5.69
2017-02-11T10:08:34.465Z,5.65
2017-02-11T10:09:34.475Z,5.66
2017-02-11T10:10:34.385Z,5.64
2017-02-11T10:11:34.495Z,5.68
2017-02-11T10:12:34.529Z,5.65
2017-02-11T10:13:34.511Z,5.65
2017-02-11T10:14:34.457Z,5.62
2017-02-11T10:15:34.443Z,5.65
2017-02-11T10:16:34.461Z,5.66
2017-02-11T10:17:34.463Z,5.72
2017-02-11T10:18:34.480Z,5.72
2017-02-11T10:19:34.602Z,5.73
2017-02-11T10:20:34.489Z,5.68
2017-02-11T10:21:34.611Z,5.72
2017-02-11T10:22:34.629Z,5.73
2017-02-11T10:23:34.638Z,5.72
2017-02-11T10:24:34.604Z,5.75
2017-02-11T10:25:34.647Z,5.69
2017-02-11T10:26:34.168Z,5.75
2017-02-11T10:27:34.663Z,5.73
2017-02-11T10:28:34.699Z,5.75
2017-02-11T10:29:34.597Z,5.79
2017-02-11T10:30:34.616Z,5.79
2017-02-11T10:31:34.625Z,5.82
2017-02-11T10:32:34.730Z,5.76
2017-02-11T10:33:34.753Z,5.82
2017-02-11T10:34:34.697Z,5.76
2017-02-11T10:35:34.753Z,5.79
2017-02-11T10:36:34.690Z,5.76
2017-02-11T10:37:34.690Z,5.83
2017-02-11T10:38:34.703Z,5.79
2017-02-11T10:39:34.704Z,5.83
2017-02-11T10:40:34.726Z,5.79
2017-02-11T10:41:34.734Z,5.87
2017-02-11T10:42:34.739Z,5.8
2017-02-11T10:43:34.757Z,5.87
2017-02-11T10:44:34.769Z,5.86
2017-02-11T10:45:34.771Z,5.84
2017-02-11T10:46:34.843Z,5.83
2017-02-11T10:47:34.792Z,5.9
2017-02-11T10:48:34.823Z,5.91
2017-02-11T10:49:34.825Z,5.97
2017-02-11T10:50:34.832Z,5.98
2017-02-11T10:51:34.856Z,5.9
2017-02-11T10:52:34.865Z,5.93
2017-02-11T10:53:34.870Z,5.9
2017-02-11T10:54:34.881Z,5.99
2017-02-11T10:55:34.896Z,5.91
2017-02-11T10:56:34.904Z,5.97
2017-02-11T10:57:34.921Z,5.87
2017-02-11T10:58:34.933Z,5.87
2017-02-11T10:59:34.945Z,5.97
2017-02-11T11:00:34.954Z,6.02
2017-02-11T11:01:34.966Z,6.02
2017-02-11T11:02:34.976Z,5.97
2017-02-11T11:03:34.986Z,5.99
2017-02-11T11:04:35.004Z,6.04
2017-02-11T11:05:35.016Z,5.94
2017-02-11T11:06:35.173Z,6.08
2017-02-11T11:07:35.033Z,6.02
2017-02-11T11:08:35.045Z,6.02
2017-02-11T11:09:35.119Z,5.98
2017-02-11T11:10:35.071Z,6.07
2017-02-11T11:11:35.081Z,6.11
2017-02-11T11:12:34.685Z,5.99
2017-02-11T11:13:35.127Z,5.98
2017-02-11T11:14:35.107Z,6.02
2017-02-11T11:15:35.236Z,5.97
2017-02-11T11:16:35.145Z,6.01
2017-02-11T11:17:35.235Z,6.09
2017-02-11T11:18:35.304Z,5.97
2017-02-11T11:19:35.171Z,6.05
2017-02-11T11:20:34.787Z,6.05
2017-02-11T11:21:35.193Z,5.99
2017-02-11T11:22:35.203Z,6.07
2017-02-11T11:23:34.817Z,6.08
2017-02-11T11:24:35.229Z,6.07
2017-02-11T11:25:35.223Z,6.08
2017-02-11T11:26:34.843Z,6.04
2017-02-11T11:27:34.866Z,6.2
2017-02-11T11:28:35.325Z,6.11
2017-02-11T11:29:35.289Z,6.14
2017-02-11T11:30:35.295Z,6.11
2017-02-11T11:31:35.303Z,6.12
2017-02-11T11:32:35.323Z,6.12
2017-02-11T11:33:35.333Z,6.16
2017-02-11T11:34:35.455Z,6.08
2017-02-11T11:35:35.362Z,6.16
2017-02-11T11:36:35.376Z,6.12
2017-02-11T11:37:35.384Z,6.17
2017-02-11T11:38:35.588Z,6.14
2017-02-11T11:39:35.393Z,6.17
2017-02-11T11:40:35.408Z,6.26
2017-02-11T11:41:35.435Z,6.22
2017-02-11T11:42:35.440Z,6.26
2017-02-11T11:43:35.072Z,6.24
2017-02-11T11:44:35.521Z,6.24
2017-02-11T11:45:35.456Z,6.17
2017-02-11T11:46:35.488Z,6.22
2017-02-11T11:47:35.495Z,6.24
2017-02-11T11:48:35.506Z,6.17
2017-02-11T11:49:35.533Z,6.2
2017-02-11T11:50:35.532Z,6.35
2017-02-11T11:51:35.544Z,6.31
2017-02-11T11:52:35.557Z,6.27
2017-02-11T11:53:35.568Z,6.27
2017-02-11T11:54:35.573Z,6.27
2017-02-11T11:55:35.591Z,6.27
2017-02-11T11:56:35.591Z,6.26
2017-02-11T11:57:35.616Z,6.31
2017-02-11T11:58:35.620Z,6.35
2017-02-11T11:59:35.653Z,6.27
2017-02-11T12:00:35.651Z,6.38
2017-02-11T12:01:35.662Z,6.36
2017-02-11T12:02:35.673Z,6.44
2017-02-11T12:03:35.685Z,6.33
2017-02-11T12:04:35.698Z,6.41
2017-02-11T12:05:35.698Z,6.39
2017-02-11T12:06:35.714Z,6.46
2017-02-11T12:07:35.735Z,6.45
2017-02-11T12:08:35.867Z,6.44
2017-02-11T12:09:35.753Z,6.48
2017-02-11T12:10:35.776Z,6.51
2017-02-11T12:11:35.384Z,6.46
2017-02-11T12:12:35.956Z,6.51
2017-02-11T12:13:35.407Z,6.52
2017-02-11T12:14:35.419Z,6.56
2017-02-11T12:15:35.834Z,6.52
2017-02-11T12:16:35.913Z,6.51
2017-02-11T12:17:35.853Z,6.59
2017-02-11T12:18:35.866Z,6.59
2017-02-11T12:19:35.989Z,6.54
2017-02-11T12:20:36.006Z,6.57
2017-02-11T12:21:35.491Z,6.57
2017-02-11T12:22:35.964Z,6.56
2017-02-11T12:23:36.027Z,6.56
2017-02-11T12:24:35.935Z,6.54
2017-02-11T12:25:36.527Z,6.57
2017-02-11T12:26:35.564Z,6.52
2017-02-11T12:27:35.976Z,6.56
2017-02-11T12:28:35.967Z,6.54
2017-02-11T12:29:35.995Z,6.59
2017-02-11T12:30:36.010Z,6.59
2017-02-11T12:31:36.016Z,6.57
2017-02-11T12:32:36.061Z,6.57
2017-02-11T12:33:36.037Z,6.49
2017-02-11T12:34:36.056Z,6.48
2017-02-11T12:35:36.070Z,6.49
2017-02-11T12:36:36.081Z,6.48
2017-02-11T12:37:36.091Z,6.49
2017-02-11T12:38:36.099Z,6.57
2017-02-11T12:39:36.120Z,6.56
2017-02-11T12:40:36.129Z,6.52
2017-02-11T12:41:36.135Z,6.52
2017-02-11T12:42:36.147Z,6.57
2017-02-11T12:43:36.164Z,6.59
2017-02-11T12:44:36.203Z,6.57
2017-02-11T12:45:36.193Z,6.49
2017-02-11T12:46:36.285Z,6.51
2017-02-11T12:47:35.977Z,6.56
2017-02-11T12:48:36.368Z,6.56
2017-02-11T12:49:35.845Z,6.59
2017-02-11T12:50:36.398Z,6.52
2017-02-11T12:51:36.395Z,6.51
2017-02-11T12:52:35.998Z,6.59
2017-02-11T12:53:36.016Z,6.52
2017-02-11T12:54:36.370Z,6.57
2017-02-11T12:55:35.976Z,6.51
2017-02-11T12:56:36.085Z,6.49
2017-02-11T12:57:36.064Z,6.51
2017-02-11T12:58:36.091Z,6.52
2017-02-11T12:59:36.081Z,6.46
2017-02-11T13:00:36.104Z,6.48
2017-02-11T13:01:36.394Z,6.51
2017-02-11T13:02:36.386Z,6.51
2017-02-11T13:03:36.409Z,6.51
2017-02-11T13:04:36.416Z,6.56
2017-02-11T13:05:36.428Z,6.52
2017-02-11T13:06:36.444Z,6.59
2017-02-11T13:07:36.454Z,6.63
2017-02-11T13:08:36.467Z,6.59
2017-02-11T13:09:36.478Z,6.49
2017-02-11T13:10:36.497Z,6.56
2017-02-11T13:11:36.497Z,6.62
2017-02-11T13:12:36.506Z,6.57
2017-02-11T13:13:36.127Z,6.62
2017-02-11T13:14:36.534Z,6.62
2017-02-11T13:15:36.547Z,6.66
2017-02-11T13:16:36.566Z,6.62
2017-02-11T13:17:36.574Z,6.72
2017-02-11T13:18:36.586Z,6.56
2017-02-11T13:19:36.602Z,6.57
2017-02-11T13:20:36.610Z,6.64
2017-02-11T13:21:36.622Z,6.63
2017-02-11T13:22:36.834Z,6.66
2017-02-11T13:23:36.644Z,6.63
2017-02-11T13:24:36.865Z,6.66